Paradise Valley, Nevada Weather observations

Data are for 10 minute period ending at time listed.
 Day   Time   Solar   Ave.   Ave.  Ave.  Vector  Max.   Baro.   Total    
  of    of     Rad.   Air    Rel.  Wind   Wind   Wind  Press.  Precip.   
Year   Day            Temp.  Hum.  Speed  Dir.   Gust                    
2017   (PST)  Kw/m2    F      %     mph   deg.    mph    mb.     in.     
-------------------------------------------------------------------------
 206   10:00   0.88   81.1    38    2.5   174     5.8   867.8    0.00 
 206   10:10   0.89   81.5    37    3.4   158     8.7   867.7    0.00 
 206   10:20   0.91   81.6    35    3.1   116     6.0   867.7    0.00 
 206   10:30   0.93   81.7    37    4.5   146     8.6   867.7    0.00 
 206   10:40   0.93   82.8    34    4.7   187     8.8   867.6    0.00 
 206   10:50   0.95   83.1    34    3.7   171     8.7   867.5    0.00 
 206   11:00   0.97   83.0    33    4.9   170     9.3   867.5    0.00 
 206   11:10   0.98   84.0    32    3.8   211     7.2   867.3    0.00 
 206   11:20   0.99   84.8    30    3.0   202     8.0   867.3    0.00 
 206   11:30   1.00   85.9    30    4.0   187     7.5   867.2    0.00 
 206   11:40   1.01   85.4    29    3.5   183     7.0   867.2    0.00 
 206   11:50   1.01   86.0    26    2.1   293     4.7   867.0    0.00 
 206   12:00   1.02   86.0    26    4.0   174     8.4   866.9    0.00 
 206   12:10   1.02   85.9    25    4.5   129    13.7   866.8    0.00 
 206   12:20   1.02   86.5    26    3.2   178     7.1   866.7    0.00 
 206   12:30   1.02   86.1    27    4.0   174     7.7   866.6    0.00 
 206   12:40   1.01   87.3    24    2.9    96     6.4   866.4    0.00 
 206   12:50   1.01   87.5    23    2.7   207     6.5   866.3    0.00 
 206   13:00   1.00   88.0    23    2.0   323     6.1   866.1    0.00 
 206   13:10   0.99   88.5    24    3.5   152     8.6   866.0    0.00 
 206   13:20   0.98   88.2    24    3.2   130     6.9   865.8    0.00 
 206   13:30   0.96   88.0    22    3.3   113     6.6   865.7    0.00 
 206   13:40   0.95   88.1    22    2.2    63     5.1   865.5    0.00 
 206   13:50   0.93   88.8    24    3.7   239     7.8   865.3    0.00 
 206   14:00   0.92   88.9    24    3.8   200     9.4   865.2    0.00 
 206   14:10   0.90   89.2    23    2.9   193     8.5   865.1    0.00 
 206   14:20   0.88   89.5    24    2.7   159     6.7   864.9    0.00 
 206   14:30   0.86   90.6    22    1.8   232     4.5   864.7    0.00 
 206   14:40   0.84   90.2    21    2.8    79     7.9   864.6    0.00 
 206   14:50   0.77   90.4    22    3.4   148     6.6   864.5    0.00 
 206   15:00   0.70   89.8    23    4.2   131     7.4   864.6    0.00 
 206   15:10   0.68   89.6    24    4.1   143     8.6   864.6    0.00 
 206   15:20   0.50   89.2    26    3.3   174     6.3   864.6    0.00 
 206   15:30   0.40   89.0    24    1.9   183     5.4   864.6    0.00 
 206   15:40   0.36   89.0    21    2.4    60     8.3   864.6    0.00 
 206   15:50   0.39   89.0    21    3.0    73     5.6   864.7    0.00 
 206   16:00   0.46   89.0    21    2.7    70     6.0   864.7    0.00 
 206   16:10   0.65   90.4    20    2.6   102     5.0   864.6    0.00 
 206   16:20   0.47   91.2    19    1.2   350     4.0   864.4    0.00 
 206   16:30   0.25   89.3    21    2.9   121     5.3   864.4    0.00 
 206   16:40   0.22   88.1    24    2.9   121     5.0   864.3    0.00 
 206   16:50   0.20   87.5    23    2.4   126     5.0   864.3    0.00 
 206   17:00   0.19   87.0    25    3.5   108     7.0   864.4    0.00 
 206   17:10   0.20   86.9    27    3.3   113     5.7   864.5    0.00 
 206   17:20   0.17   86.6    26    4.2   118     5.3   864.5    0.00 
 206   17:30   0.14   85.3    34    3.1   132     5.4   864.6    0.00 
 206   17:40   0.16   83.9    34    4.6   134     7.7   864.8    0.00 
 206   17:50   0.09   82.9    38    3.1   131     4.5   864.8    0.00 
 206   18:00   0.06   80.7    45    3.6   140     5.3   864.8    0.00 
 206   18:10   0.02   78.3    50    4.8   207    12.5   865.1    0.00 
 206   18:20   0.02   79.6    29   16.7   307    29.4   865.4    0.00 
 206   18:30   0.02   79.5    28   16.1   310    26.4   865.7    0.00 
 206   18:40   0.02   79.2    29   12.9   321    21.3   865.9    0.00 
 206   18:50   0.01   78.1    31    7.4   357    18.1   866.2    0.00 
 206   19:00   0.01   77.1    32    6.4    75    12.6   866.2    0.00 
 206   19:10   0.00   77.0    32    7.5    48    13.3   866.3    0.00 
 206   19:20   0.00   76.6    32    5.9    25    11.5   866.4    0.00 
 206   19:30   0.00   76.2    33   11.6   321    21.9   866.2    0.00 
 206   19:40   0.00   76.4    32   16.4   317    23.0   866.1    0.00 
 206   19:50   0.00   76.7    32   15.1   325    23.8   866.2    0.00 
 206   20:00   0.00   76.3    35   14.8   333    20.1   866.4    0.00 
 206   20:10   0.00   74.7    40   11.9   344    17.0   866.7    0.00 
 206   20:20   0.00   72.8    45   12.8     6    18.5   867.0    0.00 
 206   20:30   0.00   72.3    46   10.1   356    16.5   867.2    0.00 
 206   20:40   0.00   70.7    51    8.3   337    12.1   867.4    0.00 
 206   20:50   0.00   70.4    51    7.1   337    11.1   867.4    0.00 
 206   21:00   0.00   69.6    53    6.0   338     9.1   867.4    0.00 
 206   21:10   0.00   69.1    53    5.8   346     8.8   867.5    0.00 
 206   21:20   0.00   69.7    51    6.1   326     8.7   867.6    0.00 
 206   21:30   0.00   69.3    52    3.3   354     5.6   867.6    0.00 
 206   21:40   0.00   68.3    54    3.4   359     5.2   867.6    0.00 
 206   21:50   0.00   67.9    54    4.0   352     6.0   867.5    0.00 
 206   22:00   0.00   66.8    57    2.8   354     3.9   867.6    0.00 
 206   22:10   0.00   65.9    59    2.0   357     3.4   867.6    0.00 
 206   22:20   0.00   65.0    62    0.5   342     2.8   867.8    0.00 
 206   22:30   0.00   64.3    64    1.8   292     4.0   867.8    0.00 
 206   22:40   0.00   63.1    67    1.7   290     3.4   867.9    0.00 
 206   22:50   0.00   63.9    64    2.4   290     3.7   867.8    0.00 
 206   23:00   0.00   62.9    67    2.7   294     3.7   867.7    0.00 
 206   23:10   0.00   62.3    68    3.0   290     4.3   867.6    0.00 
 206   23:20   0.00   61.2    70    3.8   268     5.0   867.6    0.00 
 206   23:30   0.00   60.7    72    4.8   254     5.4   867.6    0.00 
 206   23:40   0.00   60.0    74    4.7   244     5.0   867.6    0.00 
 206   23:50   0.00   60.0    74    4.6   242     5.6   867.7    0.00 
 207    0:00   0.00   59.5    74    4.6   252     5.5   867.7    0.00 
 207    0:10   0.00   59.7    72    4.9   248     5.7   867.8    0.00 
 207    0:20   0.00   59.8    71    5.0   251     5.9   867.8    0.00 
 207    0:30   0.00   59.6    72    4.5   243     5.6   867.7    0.00 
 207    0:40   0.00   58.7    74    3.9   259     4.7   867.8    0.00 
 207    0:50   0.00   59.1    72    2.3   305     3.1   867.9    0.00 
 207    1:00   0.00   59.4    72    0.8   323     2.1   868.0    0.00 
 207    1:10   0.00   58.0    75    1.2   280     1.8   868.0    0.00 
 207    1:20   0.00   56.9    79    1.1   132     4.2   868.0    0.00 
 207    1:30   0.00   56.0    81    2.0   199     4.7   867.9    0.00 
 207    1:40   0.00   55.9    82    1.7   218     4.5   868.0    0.00 
 207    1:50   0.00   56.7    81    4.2   154     4.9   868.0    0.00 
 207    2:00   0.00   55.8    82    2.3   259     5.0   868.1    0.00 
 207    2:10   0.00   55.3    83    0.9   282     3.1   868.1    0.00 
 207    2:20   0.00   54.8    83    2.4   292     4.2   868.1    0.00 
 207    2:30   0.00   55.7    81    3.5   304     4.7   868.0    0.00 
 207    2:40   0.00   57.1    80    4.2   306     5.6   868.1    0.00 
 207    2:50   0.00   57.8    76    3.8   294     4.7   868.1    0.00 
 207    3:00   0.00   58.0    75    3.5   282     4.5   868.1    0.00 
 207    3:10   0.00   57.5    75    3.8   250     5.1   868.1    0.00 
 207    3:20   0.00   56.4    77    2.3   261     4.6   868.3    0.00 
 207    3:30   0.00   56.0    78    1.0   314     2.6   868.4    0.00 
 207    3:40   0.00   54.7    80    2.1    82     3.9   868.4    0.00 
 207    3:50   0.00   53.6    84    2.2    84     3.8   868.5    0.00 
 207    4:00   0.00   53.2    85    1.1    63     2.2   868.5    0.00 
 207    4:10   0.00   53.2    85    1.9   296     5.5   868.5    0.00 
 207    4:20   0.00   52.4    88    3.8   252     5.8   868.6    0.00 
 207    4:30   0.00   52.1    88    2.5   237     3.4   868.6    0.00 
 207    4:40   0.00   52.9    88    1.0   238     2.0   868.6    0.00 
 207    4:50   0.01   52.6    86    1.5   250     3.0   868.6    0.00 
 207    5:00   0.02   52.8    86    2.0   268     2.9   868.7    0.00 
 207    5:10   0.03   53.7    84    3.5   268     4.5   868.8    0.00 
 207    5:20   0.05   54.3    84    3.8   274     5.0   868.8    0.00 
 207    5:30   0.07   55.9    82    2.7   268     3.7   868.8    0.00 
 207    5:40   0.09   57.8    80    1.4   264     2.9   868.8    0.00 
 207    5:50   0.12   60.3    76    0.2   275     0.8   868.8    0.00 
 207    6:00   0.14   63.2    69    0.6   257     4.7   869.0    0.00 
 207    6:10   0.17   62.2    72    3.5   140     6.0   869.2    0.00 
 207    6:20   0.20   61.0    75    3.1   166     4.8   869.3    0.00 
 207    6:30   0.23   62.7    72    3.0   176     4.6   869.3    0.00 
 207    6:40   0.26   64.2    69    3.1   186     4.5   869.4    0.00 
 207    6:50   0.30   65.9    63    1.3   192     3.4   869.5    0.00 
 207    7:00   0.33   67.7    57    0.7   340     2.6   869.6    0.00 
 207    7:10   0.36   67.8    56    2.4   350     4.2   869.7    0.00 
 207    7:20   0.40   68.2    53    2.7   355     4.5   869.9    0.00 
 207    7:30   0.43   69.4    51    2.2   352     3.8   869.9    0.00 
 207    7:40   0.47   71.5    49    1.1    85     2.7   870.0    0.00 
 207    7:50   0.50   73.6    46    0.9    98     2.9   870.1    0.00 
 207    8:00   0.54   74.9    44    1.0   125     4.5   870.1    0.00 
 207    8:10   0.57   75.5    41    1.6   171     3.1   870.1    0.00 
 207    8:20   0.60   76.4    40    1.9   189     3.7   870.2    0.00 
 207    8:30   0.63   76.6    41    1.6   205     5.8   870.2    0.00 
 207    8:40   0.66   77.5    41    1.7   182     4.4   870.2    0.00 
 207    8:50   0.69   78.8    38    0.8   281     3.1   870.2    0.00 
 207    9:00   0.72   79.1    34    2.1   116     5.0   870.2    0.00 
 207    9:10   0.75   79.5    34    1.9   222     4.7   870.1    0.00 
 207    9:20   0.78   81.1    31    1.7   180     4.0   870.1    0.00 
 207    9:30   0.80   81.6    30    1.3   155     3.8   870.0    0.00 
 207    9:40   0.83   81.7    30    2.4   173     3.9   870.0    0.00 
 207    9:50   0.85   82.8    29    1.8   178     4.7   869.9    0.00 

Return to Paradise Valley graphs page.


Western Regional Climate Center,wrcc@dri.edu